地図

経路データ

SID SEASON NUMBER BASIN SUBBASIN NAME ISO_TIME NATURE LAT LON WMO_WIND WMO_PRES WMO_AGENCY TRACK_TYPE DIST2LAND LANDFALL IFLAG USA_AGENCY USA_ATCF_ID USA_LAT USA_LON USA_RECORD USA_STATUS USA_WIND USA_PRES USA_SSHS USA_R34_NE USA_R34_SE USA_R34_SW USA_R34_NW USA_R50_NE USA_R50_SE USA_R50_SW USA_R50_NW USA_R64_NE USA_R64_SE USA_R64_SW USA_R64_NW USA_POCI USA_ROCI USA_RMW USA_EYE TOKYO_LAT TOKYO_LON TOKYO_GRADE TOKYO_WIND TOKYO_PRES TOKYO_R50_DIR TOKYO_R50_LONG TOKYO_R50_SHORT TOKYO_R30_DIR TOKYO_R30_LONG TOKYO_R30_SHORT TOKYO_LAND CMA_LAT CMA_LON CMA_CAT CMA_WIND CMA_PRES HKO_LAT HKO_LON HKO_CAT HKO_WIND HKO_PRES NEWDELHI_LAT NEWDELHI_LON NEWDELHI_GRADE NEWDELHI_WIND NEWDELHI_PRES NEWDELHI_CI NEWDELHI_DP NEWDELHI_POCI REUNION_LAT REUNION_LON REUNION_TYPE REUNION_WIND REUNION_PRES REUNION_TNUM REUNION_CI REUNION_RMW REUNION_R34_NE REUNION_R34_SE REUNION_R34_SW REUNION_R34_NW REUNION_R50_NE REUNION_R50_SE REUNION_R50_SW REUNION_R50_NW REUNION_R64_NE REUNION_R64_SE REUNION_R64_SW REUNION_R64_NW BOM_LAT BOM_LON BOM_TYPE BOM_WIND BOM_PRES BOM_TNUM BOM_CI BOM_RMW BOM_R34_NE BOM_R34_SE BOM_R34_SW BOM_R34_NW BOM_R50_NE BOM_R50_SE BOM_R50_SW BOM_R50_NW BOM_R64_NE BOM_R64_SE BOM_R64_SW BOM_R64_NW BOM_ROCI BOM_POCI BOM_EYE BOM_POS_METHOD BOM_PRES_METHOD NADI_LAT NADI_LON NADI_CAT NADI_WIND NADI_PRES WELLINGTON_LAT WELLINGTON_LON WELLINGTON_WIND WELLINGTON_PRES DS824_LAT DS824_LON DS824_STAGE DS824_WIND DS824_PRES TD9636_LAT TD9636_LON TD9636_STAGE TD9636_WIND TD9636_PRES TD9635_LAT TD9635_LON TD9635_WIND TD9635_PRES TD9635_ROCI NEUMANN_LAT NEUMANN_LON NEUMANN_CLASS NEUMANN_WIND NEUMANN_PRES MLC_LAT MLC_LON MLC_CLASS MLC_WIND MLC_PRES USA_GUST BOM_GUST BOM_GUST_PER REUNION_GUST REUNION_GUST_PER USA_SEAHGT USA_SEARAD_NE USA_SEARAD_SE USA_SEARAD_SW USA_SEARAD_NW STORM_SPEED STORM_DIR
1995281N14278 1995 79 NA CS ROXANNE 1995-10-07 18:00:00 TS 14.0000 -82.1000 25 1005 hurdat_atl main 123 92 O_____________ hurdat_atl AL191995 14.0000 -82.1000 TD 25 1005 -1 6 279
1995281N14278 1995 79 NA CS ROXANNE 1995-10-07 21:00:00 TS 14.0501 -82.4275 main 89 55 P_____________ AL191995 14.0501 -82.4275 TD 25 1005 -1 6 289
1995281N14278 1995 79 NA CS ROXANNE 1995-10-08 00:00:00 TS 14.2000 -82.7000 25 1005 hurdat_atl main 55 34 O_____________ hurdat_atl AL191995 14.2000 -82.7000 TD 25 1005 -1 6 316
1995281N14278 1995 79 NA CS ROXANNE 1995-10-08 03:00:00 TS 14.4999 -82.8800 main 39 24 P_____________ AL191995 14.4999 -82.8800 TD 25 1005 -1 7 334
1995281N14278 1995 79 NA CS ROXANNE 1995-10-08 06:00:00 TS 14.8000 -83.0000 25 1005 hurdat_atl main 24 10 O_____________ hurdat_atl AL191995 14.8000 -83.0000 TD 25 1005 -1 5 329
1995281N14278 1995 79 NA CS ROXANNE 1995-10-08 09:00:00 TS 14.8925 -83.1226 main 10 0 P_____________ AL191995 14.8925 -83.1226 TD 25 1005 -1 3 316
1995281N14278 1995 79 NA CS ROXANNE 1995-10-08 12:00:00 TS 15.0000 -83.2000 25 1005 hurdat_atl main 0 0 O_____________ hurdat_atl AL191995 15.0000 -83.2000 TD 25 1005 -1 4 346
1995281N14278 1995 79 NA CS ROXANNE 1995-10-08 15:00:00 TS 15.3050 -83.2225 main 21 21 P_____________ AL191995 15.3050 -83.2225 TD 27 1004 -1 7 0
1995281N14278 1995 79 NA CS ROXANNE 1995-10-08 18:00:00 TS 15.7000 -83.2000 30 1004 hurdat_atl main 49 49 O_____________ hurdat_atl AL191995 15.7000 -83.2000 TD 30 1004 -1 8 4
1995281N14278 1995 79 NA CS ROXANNE 1995-10-08 21:00:00 TS 16.1000 -83.1575 main 92 92 P_____________ AL191995 16.1000 -83.1575 TD 32 1003 -1 8 7
1995281N14278 1995 79 NA CS ROXANNE 1995-10-09 00:00:00 TS 16.5000 -83.1000 35 1002 hurdat_atl main 138 138 O_____________ hurdat_atl AL191995 16.5000 -83.1000 TS 35 1002 0 8 8
1995281N14278 1995 79 NA CS ROXANNE 1995-10-09 03:00:00 TS 16.8575 -83.0500 main 180 180 P_____________ AL191995 16.8575 -83.0500 TS 37 1001 0 7 8
1995281N14278 1995 79 NA CS ROXANNE 1995-10-09 06:00:00 TS 17.2000 -83.0000 40 1001 hurdat_atl main 208 208 O_____________ hurdat_atl AL191995 17.2000 -83.0000 TS 40 1001 0 7 9
1995281N14278 1995 79 NA CS ROXANNE 1995-10-09 09:00:00 TS 17.5650 -82.9425 main 250 250 P_____________ AL191995 17.5650 -82.9425 TS 42 1000 0 7 8
1995281N14278 1995 79 NA CS ROXANNE 1995-10-09 12:00:00 TS 17.9000 -82.9000 45 999 hurdat_atl main 278 278 O_____________ hurdat_atl AL191995 17.9000 -82.9000 TS 45 999 0 6 10
1995281N14278 1995 79 NA CS ROXANNE 1995-10-09 15:00:00 TS 18.1649 -82.8327 main 312 312 P_____________ AL191995 18.1649 -82.8327 TS 47 997 0 5 2
1995281N14278 1995 79 NA CS ROXANNE 1995-10-09 18:00:00 TS 18.4000 -82.9000 50 995 hurdat_atl main 326 304 O_____________ hurdat_atl AL191995 18.4000 -82.9000 TS 50 995 0 6 321
1995281N14278 1995 79 NA CS ROXANNE 1995-10-09 21:00:00 TS 18.6653 -83.2547 main 306 291 P_____________ AL191995 18.6653 -83.2547 TS 55 992 0 9 303
1995281N14278 1995 79 NA CS ROXANNE 1995-10-10 00:00:00 TS 18.9000 -83.7000 60 989 hurdat_atl main 294 286 O_____________ hurdat_atl AL191995 18.9000 -83.7000 TS 60 989 0 8 300
1995281N14278 1995 79 NA CS ROXANNE 1995-10-10 03:00:00 TS 19.0723 -84.0077 main 286 286 P_____________ AL191995 19.0723 -84.0077 TS 65 987 1 6 298
1995281N14278 1995 79 NA CS ROXANNE 1995-10-10 06:00:00 TS 19.2000 -84.3000 70 985 hurdat_atl main 290 279 O_____________ hurdat_atl AL191995 19.2000 -84.3000 HU 70 985 1 6 290
1995281N14278 1995 79 NA CS ROXANNE 1995-10-10 09:00:00 TS 19.2848 -84.6203 main 279 251 P_____________ AL191995 19.2848 -84.6203 HU 75 978 1 7 287
1995281N14278 1995 79 NA CS ROXANNE 1995-10-10 12:00:00 TS 19.4000 -85.0000 80 972 hurdat_atl main 251 206 O_____________ hurdat_atl AL191995 19.4000 -85.0000 HU 80 972 1 9 295
1995281N14278 1995 79 NA CS ROXANNE 1995-10-10 15:00:00 TS 19.6607 -85.4705 main 190 137 P_____________ AL191995 19.6607 -85.4705 HU 87 969 2 11 298
1995281N14278 1995 79 NA CS ROXANNE 1995-10-10 18:00:00 TS 19.9000 -86.0000 95 966 hurdat_atl main 137 98 O_____________ hurdat_atl AL191995 19.9000 -86.0000 HU 95 966 2 11 288
1995281N14278 1995 79 NA CS ROXANNE 1995-10-10 21:00:00 TS 19.9921 -86.5562 main 91 83 P_____________ AL191995 19.9921 -86.5562 HU 98 958 3 10 279
1995281N14278 1995 79 NA CS ROXANNE 1995-10-10 21:52:00 TS 20.0000 -86.7000 100 956 hurdat_atl main 83 52 O_____________ hurdat_atl AL191995 20.0000 -86.7000 I HU 100 956 3 8 271
1995281N14278 1995 79 NA CS ROXANNE 1995-10-11 00:00:00 TS 20.0000 -87.0000 100 958 hurdat_atl main 52 0 O_____________ hurdat_atl AL191995 20.0000 -87.0000 HU 100 958 3 12 270
1995281N14278 1995 79 NA NA ROXANNE 1995-10-11 02:00:00 TS 20.0000 -87.6000 100 958 hurdat_atl main 0 0 O_____________ hurdat_atl AL191995 20.0000 -87.6000 L HU 100 958 3 15 270
1995281N14278 1995 79 NA NA ROXANNE 1995-10-11 03:00:00 TS 20.0015 -87.7908 main 0 0 P_____________ AL191995 20.0015 -87.7908 HU 97 960 3 7 270
1995281N14278 1995 79 NA NA ROXANNE 1995-10-11 06:00:00 TS 20.0000 -88.1000 90 970 hurdat_atl main 0 0 O_____________ hurdat_atl AL191995 20.0000 -88.1000 HU 90 970 2 7 267
1995281N14278 1995 79 NA NA ROXANNE 1995-10-11 09:00:00 TS 19.9663 -88.5843 main 0 0 P_____________ AL191995 19.9663 -88.5843 HU 82 976 1 9 264
1995281N14278 1995 79 NA NA ROXANNE 1995-10-11 12:00:00 TS 19.9000 -89.1000 75 983 hurdat_atl main 0 0 O_____________ hurdat_atl AL191995 19.9000 -89.1000 HU 75 983 1 9 260
1995281N14278 1995 79 NA NA ROXANNE 1995-10-11 15:00:00 TS 19.8074 -89.5650 main 0 0 P_____________ AL191995 19.8074 -89.5650 HU 72 985 1 9 257
1995281N14278 1995 79 NA NA ROXANNE 1995-10-11 18:00:00 TS 19.7000 -90.0000 70 987 hurdat_atl main 0 0 O_____________ hurdat_atl AL191995 19.7000 -90.0000 HU 70 987 1 8 254
1995281N14278 1995 79 NA NA ROXANNE 1995-10-11 21:00:00 TS 19.5849 -90.4151 main 0 0 P_____________ AL191995 19.5849 -90.4151 HU 67 988 1 8 255
1995281N14278 1995 79 NA GM ROXANNE 1995-10-12 00:00:00 TS 19.5000 -90.8000 65 990 hurdat_atl main 10 10 O_____________ hurdat_atl AL191995 19.5000 -90.8000 HU 65 990 1 7 262
1995281N14278 1995 79 NA GM ROXANNE 1995-10-12 03:00:00 TS 19.4849 -91.1574 main 39 39 P_____________ AL191995 19.4849 -91.1574 HU 65 991 1 7 270
1995281N14278 1995 79 NA GM ROXANNE 1995-10-12 06:00:00 TS 19.5000 -91.5000 65 992 hurdat_atl main 59 59 O_____________ hurdat_atl AL191995 19.5000 -91.5000 HU 65 992 1 7 270
1995281N14278 1995 79 NA GM ROXANNE 1995-10-12 09:00:00 TS 19.4850 -91.8726 main 79 79 P_____________ AL191995 19.4850 -91.8726 HU 60 993 0 7 270
1995281N14278 1995 79 NA GM ROXANNE 1995-10-12 12:00:00 TS 19.5000 -92.2000 55 994 hurdat_atl main 99 99 O_____________ hurdat_atl AL191995 19.5000 -92.2000 TS 55 994 0 5 279
1995281N14278 1995 79 NA GM ROXANNE 1995-10-12 15:00:00 TS 19.5699 -92.4375 main 111 111 P_____________ AL191995 19.5699 -92.4375 TS 55 994 0 4 298
1995281N14278 1995 79 NA GM ROXANNE 1995-10-12 18:00:00 TS 19.7000 -92.6000 55 995 hurdat_atl main 123 123 O_____________ hurdat_atl AL191995 19.7000 -92.6000 TS 55 995 0 4 321
1995281N14278 1995 79 NA GM ROXANNE 1995-10-12 21:00:00 TS 19.8849 -92.7076 main 145 145 P_____________ AL191995 19.8849 -92.7076 TS 55 994 0 4 335
1995281N14278 1995 79 NA GM ROXANNE 1995-10-13 00:00:00 TS 20.1000 -92.8000 55 993 hurdat_atl main 168 168 O_____________ hurdat_atl AL191995 20.1000 -92.8000 TS 55 993 0 5 333
1995281N14278 1995 79 NA GM ROXANNE 1995-10-13 03:00:00 TS 20.2925 -92.9276 main 191 191 P_____________ AL191995 20.2925 -92.9276 TS 55 993 0 5 325
1995281N14278 1995 79 NA GM ROXANNE 1995-10-13 06:00:00 TS 20.5000 -93.1000 55 993 hurdat_atl main 216 216 O_____________ hurdat_atl AL191995 20.5000 -93.1000 TS 55 993 0 6 319
1995281N14278 1995 79 NA GM ROXANNE 1995-10-13 09:00:00 TS 20.7501 -93.3499 main 253 253 P_____________ AL191995 20.7501 -93.3499 TS 55 992 0 7 317
1995281N14278 1995 79 NA GM ROXANNE 1995-10-13 12:00:00 TS 21.0000 -93.6000 55 992 hurdat_atl main 284 284 O_____________ hurdat_atl AL191995 21.0000 -93.6000 TS 55 992 0 6 318
1995281N14278 1995 79 NA GM ROXANNE 1995-10-13 15:00:00 TS 21.2075 -93.7875 main 307 303 P_____________ AL191995 21.2075 -93.7875 TS 55 990 0 5 325
1995281N14278 1995 79 NA GM ROXANNE 1995-10-13 18:00:00 TS 21.4000 -93.9000 55 988 hurdat_atl main 309 309 O_____________ hurdat_atl AL191995 21.4000 -93.9000 TS 55 988 0 4 343
1995281N14278 1995 79 NA GM ROXANNE 1995-10-13 21:00:00 TS 21.6000 -93.9226 main 322 322 P_____________ AL191995 21.6000 -93.9226 TS 55 985 0 4 0
1995281N14278 1995 79 NA GM ROXANNE 1995-10-14 00:00:00 TS 21.8000 -93.9000 55 982 hurdat_atl main 335 335 O_____________ hurdat_atl AL191995 21.8000 -93.9000 TS 55 982 0 4 0
1995281N14278 1995 79 NA GM ROXANNE 1995-10-14 03:00:00 TS 22.0225 -93.9075 main 350 350 P_____________ AL191995 22.0225 -93.9075 TS 57 981 0 4 0
1995281N14278 1995 79 NA GM ROXANNE 1995-10-14 06:00:00 TS 22.2000 -93.9000 60 981 hurdat_atl main 357 357 O_____________ hurdat_atl AL191995 22.2000 -93.9000 TS 60 981 0 3 0
1995281N14278 1995 79 NA GM ROXANNE 1995-10-14 09:00:00 TS 22.2799 -93.8875 main 359 359 P_____________ AL191995 22.2799 -93.8875 TS 62 980 0 1 40
1995281N14278 1995 79 NA GM ROXANNE 1995-10-14 12:00:00 TS 22.3000 -93.8000 65 980 hurdat_atl main 369 366 O_____________ hurdat_atl AL191995 22.3000 -93.8000 HU 65 980 1 3 77
1995281N14278 1995 79 NA GM ROXANNE 1995-10-14 15:00:00 TS 22.3451 -93.5727 main 366 337 P_____________ AL191995 22.3451 -93.5727 HU 67 980 1 5 90
1995281N14278 1995 79 NA GM ROXANNE 1995-10-14 18:00:00 TS 22.3000 -93.3000 70 980 hurdat_atl main 337 310 O_____________ hurdat_atl AL191995 22.3000 -93.3000 HU 70 980 1 5 121
1995281N14278 1995 79 NA GM ROXANNE 1995-10-14 21:00:00 TS 22.0799 -93.0999 main 310 280 P_____________ AL191995 22.0799 -93.0999 HU 70 979 1 6 143
1995281N14278 1995 79 NA GM ROXANNE 1995-10-15 00:00:00 TS 21.8000 -92.9000 70 979 hurdat_atl main 280 254 O_____________ hurdat_atl AL191995 21.8000 -92.9000 HU 70 979 1 6 140
1995281N14278 1995 79 NA GM ROXANNE 1995-10-15 03:00:00 TS 21.5925 -92.6576 main 254 218 P_____________ AL191995 21.5925 -92.6576 HU 72 979 1 6 131
1995281N14278 1995 79 NA GM ROXANNE 1995-10-15 06:00:00 TS 21.4000 -92.4000 75 979 hurdat_atl main 218 182 O_____________ hurdat_atl AL191995 21.4000 -92.4000 HU 75 979 1 6 129
1995281N14278 1995 79 NA GM ROXANNE 1995-10-15 09:00:00 TS 21.2000 -92.1350 main 182 155 P_____________ AL191995 21.2000 -92.1350 HU 75 979 1 6 131
1995281N14278 1995 79 NA GM ROXANNE 1995-10-15 12:00:00 TS 21.0000 -91.9000 75 980 hurdat_atl main 155 129 O_____________ hurdat_atl AL191995 21.0000 -91.9000 HU 75 980 1 6 137
1995281N14278 1995 79 NA GM ROXANNE 1995-10-15 15:00:00 TS 20.7850 -91.7200 main 129 115 P_____________ AL191995 20.7850 -91.7200 HU 75 980 1 5 145
1995281N14278 1995 79 NA GM ROXANNE 1995-10-15 18:00:00 TS 20.6000 -91.6000 75 980 hurdat_atl main 115 104 O_____________ hurdat_atl AL191995 20.6000 -91.6000 HU 75 980 1 4 148
1995281N14278 1995 79 NA GM ROXANNE 1995-10-15 21:00:00 TS 20.4775 -91.5125 main 104 104 P_____________ AL191995 20.4775 -91.5125 HU 75 980 1 2 153
1995281N14278 1995 79 NA GM ROXANNE 1995-10-16 00:00:00 TS 20.4000 -91.5000 75 981 hurdat_atl main 104 104 O_____________ hurdat_atl AL191995 20.4000 -91.5000 HU 75 981 1 2 202
1995281N14278 1995 79 NA GM ROXANNE 1995-10-16 03:00:00 TS 20.3350 -91.5700 main 114 114 P_____________ AL191995 20.3350 -91.5700 HU 72 982 1 2 241
1995281N14278 1995 79 NA GM ROXANNE 1995-10-16 06:00:00 TS 20.3000 -91.7000 70 984 hurdat_atl main 124 124 O_____________ hurdat_atl AL191995 20.3000 -91.7000 HU 70 984 1 3 259
1995281N14278 1995 79 NA GM ROXANNE 1995-10-16 09:00:00 TS 20.2850 -91.8500 main 142 142 P_____________ AL191995 20.2850 -91.8500 HU 67 984 1 3 270
1995281N14278 1995 79 NA GM ROXANNE 1995-10-16 12:00:00 TS 20.3000 -92.0000 65 985 hurdat_atl main 151 151 O_____________ hurdat_atl AL191995 20.3000 -92.0000 HU 65 985 1 2 282
1995281N14278 1995 79 NA GM ROXANNE 1995-10-16 15:00:00 TS 20.3350 -92.1075 main 160 160 P_____________ AL191995 20.3350 -92.1075 HU 65 986 1 2 299
1995281N14278 1995 79 NA GM ROXANNE 1995-10-16 18:00:00 TS 20.4000 -92.2000 65 987 hurdat_atl main 175 175 O_____________ hurdat_atl AL191995 20.4000 -92.2000 HU 65 987 1 2 310
1995281N14278 1995 79 NA GM ROXANNE 1995-10-16 21:00:00 TS 20.4850 -92.3000 main 187 187 P_____________ AL191995 20.4850 -92.3000 HU 65 989 1 3 317
1995281N14278 1995 79 NA GM ROXANNE 1995-10-17 00:00:00 TS 20.6000 -92.4000 65 991 hurdat_atl main 198 198 O_____________ hurdat_atl AL191995 20.6000 -92.4000 HU 65 991 1 3 325
1995281N14278 1995 79 NA GM ROXANNE 1995-10-17 03:00:00 TS 20.7425 -92.4925 main 209 209 P_____________ AL191995 20.7425 -92.4925 HU 62 993 0 4 329
1995281N14278 1995 79 NA GM ROXANNE 1995-10-17 06:00:00 TS 20.9000 -92.6000 60 995 hurdat_atl main 222 222 O_____________ hurdat_atl AL191995 20.9000 -92.6000 TS 60 995 0 4 323
1995281N14278 1995 79 NA GM ROXANNE 1995-10-17 09:00:00 TS 21.0650 -92.7500 main 238 238 P_____________ AL191995 21.0650 -92.7500 TS 57 996 0 4 317
1995281N14278 1995 79 NA GM ROXANNE 1995-10-17 12:00:00 TS 21.2000 -92.9000 55 998 hurdat_atl main 261 261 O_____________ hurdat_atl AL191995 21.2000 -92.9000 TS 55 998 0 3 309
1995281N14278 1995 79 NA GM ROXANNE 1995-10-17 15:00:00 TS 21.2575 -93.0076 main 274 274 P_____________ AL191995 21.2575 -93.0076 TS 52 999 0 2 299
1995281N14278 1995 79 NA GM ROXANNE 1995-10-17 18:00:00 TS 21.3000 -93.1000 50 1000 hurdat_atl main 284 284 O_____________ hurdat_atl AL191995 21.3000 -93.1000 TS 50 1000 0 2 307
1995281N14278 1995 79 NA GM ROXANNE 1995-10-17 21:00:00 TS 21.3850 -93.1925 main 297 297 P_____________ AL191995 21.3850 -93.1925 TS 47 1001 0 3 317
1995281N14278 1995 79 NA GM ROXANNE 1995-10-18 00:00:00 TS 21.5000 -93.3000 45 1003 hurdat_atl main 310 310 O_____________ hurdat_atl AL191995 21.5000 -93.3000 TS 45 1003 0 3 320
1995281N14278 1995 79 NA GM ROXANNE 1995-10-18 03:00:00 TS 21.6349 -93.4201 main 323 323 P_____________ AL191995 21.6349 -93.4201 TS 42 1003 0 4 317
1995281N14278 1995 79 NA GM ROXANNE 1995-10-18 06:00:00 TS 21.8000 -93.6000 40 1004 hurdat_atl main 349 349 O_____________ hurdat_atl AL191995 21.8000 -93.6000 TS 40 1004 0 6 311
1995281N14278 1995 79 NA GM ROXANNE 1995-10-18 09:00:00 TS 22.0151 -93.8848 main 350 326 P_____________ AL191995 22.0151 -93.8848 TS 37 1004 0 7 306
1995281N14278 1995 79 NA GM ROXANNE 1995-10-18 12:00:00 TS 22.2000 -94.2000 35 1005 hurdat_atl main 326 299 O_____________ hurdat_atl AL191995 22.2000 -94.2000 TS 35 1005 0 6 296
1995281N14278 1995 79 NA GM ROXANNE 1995-10-18 15:00:00 TS 22.2800 -94.4651 main 299 279 P_____________ AL191995 22.2800 -94.4651 TS 35 1006 0 5 282
1995281N14278 1995 79 NA GM ROXANNE 1995-10-18 18:00:00 TS 22.3000 -94.7000 35 1008 hurdat_atl main 279 259 O_____________ hurdat_atl AL191995 22.3000 -94.7000 TS 35 1008 0 4 273
1995281N14278 1995 79 NA GM ROXANNE 1995-10-18 21:00:00 TS 22.3000 -94.9151 main 259 239 P_____________ AL191995 22.3000 -94.9151 TS 32 1008 -1 4 270
1995281N14278 1995 79 NA GM ROXANNE 1995-10-19 00:00:00 TS 22.3000 -95.1000 30 1009 hurdat_atl main 239 224 O_____________ hurdat_atl AL191995 22.3000 -95.1000 TD 30 1009 -1 3 280
1995281N14278 1995 79 NA GM ROXANNE 1995-10-19 03:00:00 TS 22.3575 -95.2725 main 224 215 P_____________ AL191995 22.3575 -95.2725 TD 30 1009 -1 3 290
1995281N14278 1995 79 NA GM ROXANNE 1995-10-19 06:00:00 TS 22.4000 -95.4000 30 1009 hurdat_atl main 215 205 O_____________ hurdat_atl AL191995 22.4000 -95.4000 TD 30 1009 -1 2 270
1995281N14278 1995 79 NA GM ROXANNE 1995-10-19 09:00:00 TS 22.3575 -95.4650 main 205 201 P_____________ AL191995 22.3575 -95.4650 TD 30 1009 -1 1 220
1995281N14278 1995 79 NA GM ROXANNE 1995-10-19 12:00:00 TS 22.3000 -95.5000 30 1009 hurdat_atl main 201 191 O_____________ hurdat_atl AL191995 22.3000 -95.5000 TD 30 1009 -1 1 230
1995281N14278 1995 79 NA GM ROXANNE 1995-10-19 15:00:00 TS 22.2850 -95.5575 main 191 191 P_____________ AL191995 22.2850 -95.5575 TD 30 1009 -1 1 270
1995281N14278 1995 79 NA GM ROXANNE 1995-10-19 18:00:00 TS 22.3000 -95.6000 30 1009 hurdat_atl main 191 191 O_____________ hurdat_atl AL191995 22.3000 -95.6000 TD 30 1009 -1 1 328
1995281N14278 1995 79 NA GM ROXANNE 1995-10-19 21:00:00 TS 22.3800 -95.6150 main 196 196 P_____________ AL191995 22.3800 -95.6150 TD 30 1009 -1 1 0
1995281N14278 1995 79 NA GM ROXANNE 1995-10-20 00:00:00 TS 22.4000 -95.6000 30 1009 hurdat_atl main 196 191 O_____________ hurdat_atl AL191995 22.4000 -95.6000 TD 30 1009 -1 1 156
1995281N14278 1995 79 NA GM ROXANNE 1995-10-20 03:00:00 TS 22.2450 -95.5499 main 197 191 P_____________ AL191995 22.2450 -95.5499 TD 30 1009 -1 4 168
1995281N14278 1995 79 NA GM ROXANNE 1995-10-20 06:00:00 TS 22.0000 -95.5000 30 1009 hurdat_atl main 191 187 O_____________ hurdat_atl AL191995 22.0000 -95.5000 TD 30 1009 -1 5 174
1995281N14278 1995 79 NA GM ROXANNE 1995-10-20 09:00:00 TS 21.7950 -95.4925 main 187 186 P_____________ AL191995 21.7950 -95.4925 TD 27 1009 -1 5 178
1995281N14278 1995 79 NA GM ROXANNE 1995-10-20 12:00:00 TS 21.5000 -95.5000 25 1009 hurdat_atl main 186 160 O_____________ hurdat_atl AL191995 21.5000 -95.5000 TD 25 1009 -1 8 176
1995281N14278 1995 79 NA GM ROXANNE 1995-10-20 15:00:00 TS 21.0374 -95.4621 main 152 115 P_____________ AL191995 21.0374 -95.4621 TD 25 1009 -1 10 179
1995281N14278 1995 79 NA GM ROXANNE 1995-10-20 18:00:00 TS 20.5000 -95.5000 25 1010 hurdat_atl main 115 74 O_____________ hurdat_atl AL191995 20.5000 -95.5000 TD 25 1010 -1 11 192
1995281N14278 1995 79 NA GM ROXANNE 1995-10-20 21:00:00 TS 19.9877 -95.7006 main 74 35 P_____________ AL191995 19.9877 -95.7006 TD 25 1010 -1 11 205
1995281N14278 1995 79 NA GM ROXANNE 1995-10-21 00:00:00 TS 19.5000 -96.0000 25 1011 hurdat_atl main 35 O_____________ hurdat_atl AL191995 19.5000 -96.0000 TD 25 1011 -1 11 210

IBTrACS Databaseについて

本データベースは、米国NOAAが公開する1842年以降の世界の熱帯低気圧のベストトラックデータアーカイブInternational Best Track Archive for Climate Stewardship (IBTrACS)を、ウェブで閲覧しやすい形式に変換したものです。

最終更新日:2021-11-26